Time;durP1;ratioP1;P1;durP2;ratioP2;P2;SDS_P1;SDS_P2;PMS_P1;PMS_P2;Temp;Humidity;BMP_temperature;BMP_pressure;BME280_temperature;BME280_humidity;BME280_pressure;Samples;Min_cycle;Max_cycle;Signal;HPM_P1;HPM_P2
2023/01/04 00:01:04;;;;;;;39.53;28.13;;;;;;;4.38;69.76;100460.91;5034261;28;20435;-79
2023/01/04 00:03:33;;;;;;;39.20;27.77;;;;;;;3.68;70.00;100344.19;5034397;28;20490;-79
2023/01/04 00:06:01;;;;;;;35.87;25.83;;;;;;;3.56;69.96;100326.00;5034388;28;20021;-78
2023/01/04 00:08:27;;;;;;;33.87;23.63;;;;;;;4.52;69.75;100515.63;5032847;28;20577;-79
2023/01/04 00:10:58;;;;;;;36.87;27.23;;;;;;;4.03;70.04;100406.88;5034028;28;20017;-79
2023/01/04 00:13:24;;;;;;;32.90;24.20;;;;;;;4.54;69.94;100498.03;5033929;28;20103;-78
2023/01/04 00:15:49;;;;;;;35.97;25.50;;;;;;;4.46;70.02;100479.50;5033989;28;20283;-79
2023/01/04 00:18:15;;;;;;;28.93;21.60;;;;;;;4.45;69.84;100481.25;5034104;28;20029;-78
2023/01/04 00:20:40;;;;;;;30.97;23.43;;;;;;;3.97;69.70;100403.91;5033938;28;20029;-79
2023/01/04 00:23:05;;;;;;;26.20;18.57;;;;;;;4.37;69.72;100456.63;5033908;28;20414;-79
2023/01/04 00:25:31;;;;;;;30.90;22.80;;;;;;;4.53;69.87;100491.16;5033978;28;20029;-79
2023/01/04 00:27:56;;;;;;;30.63;22.13;;;;;;;3.73;69.94;100372.59;5033888;28;20104;-78
2023/01/04 00:30:22;;;;;;;35.33;23.60;;;;;;;4.55;69.88;100511.97;5038979;28;20486;-78
2023/01/04 00:32:47;;;;;;;28.37;20.70;;;;;;;3.50;69.78;100353.41;5043473;28;20021;-77
2023/01/04 00:35:12;;;;;;;29.97;20.67;;;;;;;4.15;69.83;100449.56;5041582;28;20022;-79
2023/01/04 00:37:38;;;;;;;30.33;21.27;;;;;;;4.34;69.94;100491.69;5039030;28;20044;-79
2023/01/04 00:40:04;;;;;;;29.03;22.27;;;;;;;4.45;70.04;100507.38;5039814;28;20053;-79
2023/01/04 00:42:29;;;;;;;31.30;21.97;;;;;;;3.62;69.91;100378.59;5038457;28;20446;-78
2023/01/04 00:44:54;;;;;;;25.53;18.80;;;;;;;4.45;69.80;100509.16;5037533;28;20021;-79
2023/01/04 00:47:20;;;;;;;27.47;21.43;;;;;;;3.92;69.83;100429.53;5033566;28;20048;-78
2023/01/04 00:49:46;;;;;;;25.57;19.30;;;;;;;3.29;69.60;100323.66;5033484;28;20417;-79
2023/01/04 00:52:11;;;;;;;28.20;20.17;;;;;;;4.25;69.63;100489.75;5033347;28;20029;-78
2023/01/04 00:54:37;;;;;;;24.43;19.00;;;;;;;3.42;69.49;100355.75;5033258;28;20096;-79
2023/01/04 00:57:04;;;;;;;36.50;24.70;;;;;;;4.19;69.60;100484.16;5032047;28;20035;-78
2023/01/04 00:59:29;;;;;;;33.70;23.73;;;;;;;4.37;69.82;100522.81;5033230;28;20025;-78
2023/01/04 01:01:55;;;;;;;34.10;22.80;;;;;;;3.37;69.54;100363.91;5032479;28;20025;-79
2023/01/04 01:04:23;;;;;;;28.07;20.93;;;;;;;4.39;69.75;100520.09;5033175;28;20028;-79
2023/01/04 01:06:49;;;;;;;31.40;21.67;;;;;;;4.39;69.44;100530.53;5031683;28;20018;-79
2023/01/04 01:09:15;;;;;;;34.43;23.93;;;;;;;4.44;69.46;100526.63;5033048;28;20080;-79
2023/01/04 01:11:41;;;;;;;29.10;21.23;;;;;;;4.42;69.29;100523.31;5032932;28;20025;-78
2023/01/04 01:14:11;;;;;;;28.73;20.70;;;;;;;4.43;69.29;100526.75;5033148;28;20568;-79
2023/01/04 01:16:36;;;;;;;28.63;21.27;;;;;;;3.70;69.27;100418.03;5032885;28;20105;-78
2023/01/04 01:19:02;;;;;;;27.87;20.63;;;;;;;4.40;69.74;100517.34;5033040;28;20105;-78
2023/01/04 01:21:28;;;;;;;27.07;19.73;;;;;;;4.21;69.58;100490.09;5032958;28;20036;-78
2023/01/04 01:23:54;;;;;;;28.07;20.20;;;;;;;4.45;69.04;100524.84;5031633;28;20090;-79
2023/01/04 01:26:23;;;;;;;31.10;20.83;;;;;;;4.45;69.14;100525.69;5032747;28;20018;-79
2023/01/04 01:28:48;;;;;;;30.87;21.80;;;;;;;4.25;69.10;100500.22;5032721;28;20018;-78
2023/01/04 01:31:22;;;;;;;38.47;27.53;;;;;;;4.47;68.88;100530.84;5032721;28;20028;-78
2023/01/04 01:33:50;;;;;;;40.80;29.27;;;;;;;4.11;68.82;100467.25;5032653;28;20028;-78
2023/01/04 01:36:17;;;;;;;40.13;27.03;;;;;;;4.46;68.78;100524.78;5032426;28;20052;-79
2023/01/04 01:38:43;;;;;;;49.70;31.87;;;;;;;4.45;68.65;100520.47;5032687;28;20029;-79
2023/01/04 01:41:24;;;;;;;49.90;33.77;;;;;;;3.99;68.23;100438.59;5032602;28;20584;-79
2023/01/04 01:43:52;;;;;;;44.07;30.53;;;;;;;4.45;68.46;100512.63;5032528;28;20057;-79
2023/01/04 01:46:34;;;;;;;44.77;31.13;;;;;;;4.22;68.21;100482.13;5032825;28;20022;-79
2023/01/04 01:49:03;;;;;;;;;;;;;;;4.17;68.06;100515.63;5032745;28;20151;-78
2023/01/04 01:51:30;;;;;;;41.27;28.43;;;;;;;3.73;68.50;100438.75;5032161;28;19944;-78
2023/01/04 01:54:05;;;;;;;40.30;28.37;;;;;;;4.21;68.34;100509.22;5031025;28;20559;-79
2023/01/04 01:56:35;;;;;;;39.40;27.67;;;;;;;3.24;68.46;100362.31;5030699;28;20461;-79
2023/01/04 01:59:01;;;;;;;39.17;28.50;;;;;;;3.26;68.64;100361.25;5030675;28;20463;-78
2023/01/04 02:01:27;;;;;;;37.37;26.23;;;;;;;4.09;68.52;100499.66;5031996;28;20017;-78
2023/01/04 02:03:53;;;;;;;34.33;25.23;;;;;;;4.19;68.27;100512.91;5032200;28;20414;-79
2023/01/04 02:06:27;;;;;;;34.37;25.33;;;;;;;3.84;68.13;100448.41;5030855;28;20029;-78
2023/01/04 02:08:53;;;;;;;30.00;23.17;;;;;;;3.72;67.72;100431.00;5031979;28;20036;-78
2023/01/04 02:11:19;;;;;;;28.93;22.20;;;;;;;3.27;67.92;100362.06;5030580;28;20033;-79
2023/01/04 02:16:38;;;;;;;28.57;22.00;;;;;;;4.15;67.91;100507.91;5035928;28;20036;-79
2023/01/04 02:19:31;;;;;;;25.47;19.97;;;;;;;4.08;67.51;100511.06;5035422;28;20022;-78
2023/01/04 02:22:02;;;;;;;26.03;18.90;;;;;;;4.06;67.83;100507.75;5033021;28;20103;-78
2023/01/04 02:24:36;;;;;;;24.33;18.90;;;;;;;4.02;67.76;100514.97;5031442;28;20025;-78
2023/01/04 02:27:07;;;;;;;24.43;18.90;;;;;;;4.01;68.04;100510.69;5032669;28;20545;-78
2023/01/04 02:29:45;;;;;;;16.27;14.02;;;;;;;3.96;68.03;100510.19;5031298;28;20426;-79
2023/01/04 02:32:40;;;;;;;25.60;18.30;;;;;;;3.97;67.34;100508.41;5031675;28;20025;-79
2023/01/04 02:35:14;;;;;;;24.73;18.20;;;;;;;3.95;67.76;100503.31;5030231;28;20083;-79
2023/01/04 02:37:54;;;;;;;22.93;18.07;;;;;;;3.95;68.08;100505.91;5031534;28;20021;-78
2023/01/04 02:40:30;;;;;;;26.00;19.10;;;;;;;3.95;67.56;100518.97;5031557;28;20029;-78
2023/01/04 02:46:00;;;;;;;23.20;18.98;;;;;;;3.83;67.50;100497.19;5031667;28;20036;-78
2023/01/04 02:51:27;;;;;;;24.27;18.37;;;;;;;3.98;67.53;100517.91;5031874;28;20040;-79
2023/01/04 02:53:54;;;;;;;16.65;14.90;;;;;;;3.99;67.41;100530.03;5031535;28;20013;-78
2023/01/04 02:56:46;;;;;;;24.53;19.10;;;;;;;3.78;66.92;100494.09;5031097;28;20049;-79
2023/01/04 02:59:11;;;;;;;31.77;22.58;;;;;;;3.96;67.27;100527.66;5031163;28;20021;-79
2023/01/04 03:07:36;;;;;;;29.73;21.73;;;;;;;3.90;67.19;100530.72;5031451;28;20044;-78
2023/01/04 03:10:14;;;;;;;29.02;20.58;;;;;;;3.87;67.01;100536.16;5030009;28;20460;-78
2023/01/04 03:12:49;;;;;;;26.57;20.90;;;;;;;2.82;66.80;100367.00;5030965;28;20072;-79
2023/01/04 03:15:30;;;;;;;24.80;19.57;;;;;;;2.87;66.71;100393.59;5029979;28;20021;-79
2023/01/04 03:18:13;;;;;;;24.50;18.60;;;;;;;3.66;67.21;100510.59;5031189;28;20031;-79
2023/01/04 03:20:41;;;;;;;24.60;18.23;;;;;;;3.49;67.06;100487.47;5031109;28;20068;-78
2023/01/04 03:37:29;;;;;;;35.17;24.53;;;;;;;2.73;66.56;100383.31;5035012;28;20083;-78
2023/01/04 03:48:42;;;;;;;23.17;17.43;;;;;;;3.66;67.01;100546.34;5034905;28;20036;-78
2023/01/04 03:51:13;;;;;;;21.77;17.70;;;;;;;3.63;66.96;100538.72;5033434;28;20025;-78
2023/01/04 03:54:05;;;;;;;23.37;18.07;;;;;;;3.60;66.74;100529.31;5034633;28;20029;-79
2023/01/04 03:56:34;;;;;;;17.73;14.18;;;;;;;3.09;67.10;100459.00;5035931;28;20357;-78
2023/01/04 03:59:00;;;;;;;23.37;16.83;;;;;;;2.84;66.86;100419.91;5034407;28;20033;-78
2023/01/04 04:01:26;;;;;;;19.20;16.33;;;;;;;3.63;66.75;100549.16;5034257;28;20032;-78
2023/01/04 04:09:20;;;;;;;28.50;21.60;;;;;;;3.61;66.67;100570.16;5034502;28;20040;-79
2023/01/04 04:11:46;;;;;;;23.57;18.50;;;;;;;3.38;66.38;100509.13;5033940;28;20049;-78
2023/01/04 04:14:11;;;;;;;26.30;19.50;;;;;;;3.55;66.86;100560.16;5034308;28;20101;-78
2023/01/04 04:16:37;;;;;;;26.13;21.00;;;;;;;3.54;66.78;100552.44;5035335;28;20487;-79
2023/01/04 04:19:02;;;;;;;28.17;21.10;;;;;;;3.51;66.91;100554.31;5033979;28;20030;-78
2023/01/04 04:21:28;;;;;;;27.67;20.10;;;;;;;2.31;66.71;100359.28;5034856;28;20032;-79
2023/01/04 04:23:54;;;;;;;26.43;20.03;;;;;;;3.55;66.79;100556.72;5035006;28;20021;-78
2023/01/04 04:26:19;;;;;;;28.83;19.87;;;;;;;3.40;66.90;100548.19;5034705;28;20018;-78
2023/01/04 04:28:45;;;;;;;26.63;21.23;;;;;;;3.40;66.81;100545.56;5034788;28;20025;-79
2023/01/04 04:31:11;;;;;;;25.67;20.50;;;;;;;2.97;66.78;100480.69;5033933;28;20079;-78
2023/01/04 04:33:36;;;;;;;34.60;25.80;;;;;;;2.80;66.86;100452.34;5033747;28;20120;-78
2023/01/04 04:36:02;;;;;;;28.80;22.23;;;;;;;2.99;66.83;100504.09;5032368;28;20022;-78
2023/01/04 04:38:27;;;;;;;30.13;22.67;;;;;;;3.33;66.87;100560.81;5034009;28;20022;-78
2023/01/04 04:43:37;;;;;;;30.20;22.57;;;;;;;3.04;67.00;100517.66;5034183;28;20037;-79
2023/01/04 04:46:02;;;;;;;28.37;22.23;;;;;;;3.25;66.98;100533.59;5032460;28;20106;-78
2023/01/04 04:48:28;;;;;;;30.97;21.40;;;;;;;3.45;66.50;100567.81;5033672;28;20036;-78
2023/01/04 04:50:53;;;;;;;27.10;21.17;;;;;;;2.67;66.62;100444.53;5033634;28;20021;-79
2023/01/04 04:53:19;;;;;;;31.53;24.07;;;;;;;2.50;66.48;100427.44;5033529;28;20033;-78
2023/01/04 04:55:44;;;;;;;30.70;22.40;;;;;;;3.45;66.52;100580.03;5033335;28;20026;-78
2023/01/04 04:58:09;;;;;;;28.67;21.30;;;;;;;3.32;66.49;100567.00;5032069;28;20087;-78
2023/01/04 05:00:35;;;;;;;30.83;23.43;;;;;;;2.65;66.49;100467.28;5035680;28;20059;-78
2023/01/04 05:03:01;;;;;;;32.70;24.57;;;;;;;3.27;66.56;100563.03;5037092;28;20059;-78
2023/01/04 05:05:27;;;;;;;35.40;27.77;;;;;;;2.31;66.54;100415.78;5036965;28;20568;-78
2023/01/04 05:07:53;;;;;;;36.20;28.87;;;;;;;3.42;66.39;100586.28;5036032;28;20048;-79
2023/01/04 05:10:18;;;;;;;52.10;41.17;;;;;;;2.31;66.56;100397.53;5036216;28;20562;-78
2023/01/04 05:12:58;;;;;;;36.23;29.73;;;;;;;2.37;66.34;100418.78;5036355;28;20510;-79
2023/01/04 05:15:26;;;;;;;38.20;30.50;;;;;;;3.37;66.45;100613.66;5038457;28;20025;-78
2023/01/04 05:17:52;;;;;;;34.73;28.87;;;;;;;2.38;66.52;100448.28;5039651;28;20025;-79
2023/01/04 05:20:17;;;;;;;44.37;35.60;;;;;;;2.40;66.48;100455.06;5038016;28;20543;-78
2023/01/04 05:22:42;;;;;;;39.70;31.03;;;;;;;3.41;66.57;100597.66;5039168;28;20021;-79
2023/01/04 05:25:08;;;;;;;37.80;30.33;;;;;;;3.42;66.31;100601.94;5039320;28;20079;-79
2023/01/04 05:27:35;;;;;;;33.23;28.10;;;;;;;3.27;66.52;100578.69;5039491;28;20025;-78
2023/01/04 05:32:45;;;;;;;32.83;24.43;;;;;;;3.20;66.29;100580.88;5032920;28;20060;-79
2023/01/04 05:35:10;;;;;;;36.07;26.43;;;;;;;2.36;66.33;100458.00;5032738;28;20021;-79
2023/01/04 05:37:36;;;;;;;34.20;23.93;;;;;;;3.41;66.28;100604.66;5032811;28;20053;-79
2023/01/04 05:40:01;;;;;;;34.90;26.10;;;;;;;3.29;66.60;100593.31;5032458;28;20481;-79
2023/01/04 05:42:27;;;;;;;37.73;28.50;;;;;;;3.22;65.85;100576.41;5032775;28;20025;-78
2023/01/04 05:44:57;;;;;;;39.83;28.97;;;;;;;3.23;66.26;100591.13;5034124;28;20017;-78
2023/01/04 05:47:23;;;;;;;41.83;30.47;;;;;;;3.17;65.93;100594.16;5035477;28;20017;-78
2023/01/04 05:49:50;;;;;;;42.90;33.07;;;;;;;3.02;66.05;100582.16;5036621;28;20021;-78
2023/01/04 05:52:16;;;;;;;45.87;34.00;;;;;;;2.31;66.51;100473.09;5036417;28;20029;-78
2023/01/04 05:54:41;;;;;;;61.47;40.97;;;;;;;3.20;66.36;100612.22;5036656;28;20438;-79
2023/01/04 05:57:08;;;;;;;52.10;36.43;;;;;;;3.21;66.26;100610.44;5036688;28;20024;-79
2023/01/04 05:59:33;;;;;;;49.77;36.07;;;;;;;2.96;66.36;100579.94;5036737;28;20028;-79
2023/01/04 06:01:58;;;;;;;47.87;34.17;;;;;;;1.86;66.14;100408.31;5036326;28;20021;-79
2023/01/04 06:04:24;;;;;;;52.17;36.40;;;;;;;2.10;66.07;100454.50;5034965;28;20061;-78
2023/01/04 06:06:49;;;;;;;54.30;39.13;;;;;;;2.17;66.10;100468.78;5038725;28;20008;-79
2023/01/04 06:09:15;;;;;;;58.43;42.03;;;;;;;3.09;66.04;100619.94;5053076;28;20020;-78
2023/01/04 06:11:40;;;;;;;62.67;41.73;;;;;;;3.06;66.08;100631.41;5052562;28;20031;-79
2023/01/04 06:14:05;;;;;;;53.80;37.33;;;;;;;3.04;65.86;100633.28;5052746;28;20020;-78
2023/01/04 06:16:31;;;;;;;54.07;36.13;;;;;;;2.15;65.89;100489.72;5051728;28;20502;-78
2023/01/04 06:18:56;;;;;;;50.40;36.30;;;;;;;2.81;65.95;100597.44;5051764;28;20024;-78
2023/01/04 06:21:24;;;;;;;50.90;37.07;;;;;;;2.85;66.20;100599.75;5051898;28;20425;-78
2023/01/04 06:23:50;;;;;;;52.50;35.67;;;;;;;2.94;66.31;100626.97;5051842;28;20600;-78
2023/01/04 06:26:15;;;;;;;52.47;35.93;;;;;;;1.85;66.63;100452.66;5049929;28;20036;-77
2023/01/04 06:28:40;;;;;;;49.20;32.97;;;;;;;3.20;66.74;100648.75;5051233;28;20100;-78
2023/01/04 06:31:08;;;;;;;43.33;30.30;;;;;;;3.21;66.03;100634.75;5051531;28;20033;-78
2023/01/04 06:33:33;;;;;;;46.27;30.40;;;;;;;3.42;66.01;100654.16;5052107;28;20063;-78
2023/01/04 06:35:59;;;;;;;43.37;30.83;;;;;;;2.51;65.50;100485.63;5051077;28;20029;-78
2023/01/04 06:38:25;;;;;;;50.60;32.73;;;;;;;3.52;65.34;100656.97;5050711;28;20029;-78
2023/01/04 06:40:51;;;;;;;44.70;31.60;;;;;;;3.44;65.11;100635.78;5051006;28;20029;-78
2023/01/04 06:43:17;;;;;;;45.23;33.57;;;;;;;3.45;64.95;100633.06;5049985;28;20059;-78
2023/01/04 06:45:42;;;;;;;50.47;34.17;;;;;;;2.83;65.23;100538.19;5051794;28;20053;-78
2023/01/04 06:48:08;;;;;;;75.90;48.37;;;;;;;3.57;65.07;100661.88;5050087;28;20021;-78
2023/01/04 06:50:33;;;;;;;75.90;47.93;;;;;;;3.58;65.32;100659.16;5052772;28;20029;-78
2023/01/04 06:52:59;;;;;;;78.70;49.57;;;;;;;3.61;65.57;100686.84;5051305;28;20024;-78
2023/01/04 06:55:24;;;;;;;66.87;45.33;;;;;;;3.68;65.21;100662.81;5051676;28;20094;-78
2023/01/04 06:57:50;;;;;;;65.57;44.30;;;;;;;2.93;65.06;100530.56;5048838;28;20112;-78
2023/01/04 07:00:16;;;;;;;68.00;49.70;;;;;;;3.77;65.34;100672.66;5039341;28;20033;-78
2023/01/04 07:02:43;;;;;;;60.40;45.17;;;;;;;3.74;65.40;100658.97;5054922;28;20024;-78
2023/01/04 07:05:08;;;;;;;59.27;44.00;;;;;;;3.72;65.62;100660.84;5052362;28;20029;-77
2023/01/04 07:07:34;;;;;;;62.70;43.37;;;;;;;3.13;65.63;100583.09;5051125;28;20435;-77
2023/01/04 07:10:00;;;;;;;69.70;46.23;;;;;;;2.84;65.63;100540.69;5038822;28;20409;-77
2023/01/04 07:12:26;;;;;;;71.27;50.10;;;;;;;3.72;66.02;100673.91;5049642;28;20078;-77
2023/01/04 07:14:51;;;;;;;70.60;48.93;;;;;;;3.66;65.98;100664.69;5051098;28;20059;-78
2023/01/04 07:17:16;;;;;;;75.43;48.83;;;;;;;2.36;66.20;100444.97;5054162;28;20025;-78
2023/01/04 07:19:42;;;;;;;77.60;48.73;;;;;;;3.67;66.53;100639.41;5049675;28;20025;-78
2023/01/04 07:22:07;;;;;;;69.53;48.43;;;;;;;2.88;66.49;100500.44;5043090;28;20013;-78
2023/01/04 07:24:33;;;;;;;64.57;43.23;;;;;;;4.06;66.39;100669.75;5040460;28;20143;-78
2023/01/04 07:26:59;;;;;;;58.53;43.03;;;;;;;4.07;66.37;100653.13;5046549;28;20428;-78
2023/01/04 07:29:24;;;;;;;62.17;43.83;;;;;;;3.72;66.22;100591.16;5033497;28;20028;-78
2023/01/04 07:31:51;;;;;;;64.20;45.07;;;;;;;3.43;65.99;100542.75;5044883;28;20033;-78
2023/01/04 07:34:19;;;;;;;59.87;43.07;;;;;;;4.36;66.53;100670.19;5040512;28;20457;-78
2023/01/04 07:36:46;;;;;;;64.83;46.40;;;;;;;3.35;66.56;100500.69;5034873;28;20028;-78
2023/01/04 07:39:11;;;;;;;71.57;46.83;;;;;;;4.00;66.75;100600.47;5033195;28;20457;-78
2023/01/04 07:41:40;;;;;;;61.10;42.93;;;;;;;4.53;66.66;100670.75;5053965;28;20036;-78
2023/01/04 07:44:07;;;;;;;60.33;44.17;;;;;;;4.61;66.66;100665.81;5053647;28;20024;-78
2023/01/04 07:46:33;;;;;;;64.00;46.80;;;;;;;4.67;66.66;100694.13;5038332;28;20044;-78
2023/01/04 07:48:58;;;;;;;59.70;41.63;;;;;;;3.79;66.74;100532.31;5036790;28;20537;-77
2023/01/04 07:51:24;;;;;;;59.43;40.33;;;;;;;4.77;66.71;100676.81;5035589;28;20041;-77
2023/01/04 07:53:49;;;;;;;54.37;37.50;;;;;;;3.66;66.72;100481.88;5036863;28;20490;-78
2023/01/04 07:56:16;;;;;;;52.93;39.13;;;;;;;4.70;66.83;100626.72;5053276;28;20035;-78
2023/01/04 07:58:41;;;;;;;55.07;40.17;;;;;;;4.24;67.03;100540.34;5052549;28;20051;-77
2023/01/04 08:01:08;;;;;;;61.60;42.10;;;;;;;4.28;66.71;100539.19;5051555;28;20337;-78
2023/01/04 08:03:33;;;;;;;71.43;46.93;;;;;;;5.16;67.14;100669.56;5051252;28;20509;-78
2023/01/04 08:06:07;;;;;;;70.60;46.10;;;;;;;5.11;67.09;100649.78;5051456;28;20051;-78
2023/01/04 08:08:33;;;;;;;70.00;47.17;;;;;;;5.09;67.37;100646.44;5052467;28;20017;-78
2023/01/04 08:11:03;;;;;;;63.07;43.83;;;;;;;4.90;67.38;100585.97;5051788;28;20463;-78
2023/01/04 08:13:29;;;;;;;67.37;47.47;;;;;;;5.27;67.55;100640.78;5052915;28;20053;-78
2023/01/04 08:15:55;;;;;;;63.33;43.23;;;;;;;5.52;67.58;100689.50;5053278;28;20082;-78
2023/01/04 08:18:20;;;;;;;78.33;55.60;;;;;;;4.03;67.71;100426.97;5054278;28;20024;-78
2023/01/04 08:20:45;;;;;;;62.80;46.03;;;;;;;4.47;68.22;100481.16;5054080;28;20021;-78
2023/01/04 08:23:11;;;;;;;61.20;45.67;;;;;;;5.74;68.17;100665.94;5053869;28;20025;-79
2023/01/04 08:25:36;;;;;;;67.03;44.50;;;;;;;4.79;68.21;100507.47;5053003;28;20075;-79
2023/01/04 08:28:02;;;;;;;62.40;44.87;;;;;;;5.87;68.49;100665.81;5052427;28;20540;-79
2023/01/04 08:30:28;;;;;;;57.87;44.37;;;;;;;5.79;68.48;100639.38;5053410;28;20090;-80
2023/01/04 08:32:53;;;;;;;70.87;50.67;;;;;;;6.01;68.39;100655.97;5052722;28;20057;-78
2023/01/04 08:35:19;;;;;;;48.43;34.93;;;;;;;6.22;68.56;100678.81;5053087;28;20411;-79
2023/01/04 08:37:45;;;;;;;54.53;36.45;;;;;;;6.38;68.92;100681.88;5053237;28;20495;-78
2023/01/04 08:40:11;;;;;;;44.55;34.67;;;;;;;6.52;68.95;100670.25;5053186;28;20029;-78
2023/01/04 08:42:36;;;;;;;43.60;33.00;;;;;;;6.49;69.59;100633.78;5053718;28;20021;-79
2023/01/04 08:45:02;;;;;;;35.03;27.02;;;;;;;6.83;69.24;100668.63;5052145;28;20021;-79
2023/01/04 08:47:29;;;;;;;30.20;24.30;;;;;;;5.96;69.57;100498.22;5052510;28;20025;-79
2023/01/04 08:49:54;;;;;;;29.65;22.27;;;;;;;6.27;70.20;100521.94;5053061;28;20110;-78
2023/01/04 08:52:20;;;;;;;29.92;22.92;;;;;;;7.27;69.74;100678.88;5051682;28;20088;-78
2023/01/04 08:54:46;;;;;;;23.88;20.38;;;;;;;7.38;70.29;100664.00;5052660;28;20021;-78
2023/01/04 08:57:11;;;;;;;26.77;21.67;;;;;;;7.41;69.91;100650.59;5052761;28;20028;-78
2023/01/04 08:59:37;;;;;;;24.05;19.88;;;;;;;7.39;70.33;100660.41;5052385;28;20252;-79
2023/01/04 09:02:02;;;;;;;25.58;19.40;;;;;;;7.65;70.26;100659.03;5048416;28;20029;-78
2023/01/04 09:04:27;;;;;;;24.83;19.92;;;;;;;7.05;70.38;100552.13;5045441;28;20065;-78
2023/01/04 09:06:53;;;;;;;27.70;20.65;;;;;;;7.03;70.56;100535.69;5053142;28;20474;-78
2023/01/04 09:09:18;;;;;;;29.52;22.50;;;;;;;7.92;70.26;100656.66;5053144;28;20021;-79
2023/01/04 09:11:44;;;;;;;22.90;19.08;;;;;;;8.00;69.91;100656.00;5051309;28;20486;-80
2023/01/04 09:14:09;;;;;;;26.15;20.73;;;;;;;7.76;70.03;100609.00;5052198;28;20032;-78
2023/01/04 09:16:36;;;;;;;23.08;19.67;;;;;;;7.32;70.03;100528.75;5051358;28;20064;-79
2023/01/04 09:19:02;;;;;;;22.35;19.33;;;;;;;8.21;69.64;100653.28;5052783;28;20025;-78
2023/01/04 09:21:28;;;;;;;22.33;19.00;;;;;;;7.13;69.87;100458.59;5050619;28;20056;-78
2023/01/04 09:23:56;;;;;;;25.10;19.85;;;;;;;8.31;69.80;100637.53;5052067;28;20036;-79
2023/01/04 09:26:22;;;;;;;23.65;19.60;;;;;;;7.81;69.75;100556.84;5052480;28;20017;-78
2023/01/04 09:28:49;;;;;;;28.02;20.40;;;;;;;7.02;69.55;100408.81;5052468;28;20525;-78
2023/01/04 09:31:17;;;;;;;29.02;20.40;;;;;;;8.46;69.59;100641.44;5052428;28;20476;-77
2023/01/04 09:33:44;;;;;;;24.55;19.77;;;;;;;8.31;69.33;100608.59;5052478;28;20090;-78
2023/01/04 09:36:13;;;;;;;24.23;19.40;;;;;;;7.64;69.03;100510.19;5051853;28;20040;-78
2023/01/04 09:38:38;;;;;;;22.45;18.35;;;;;;;8.50;69.38;100619.97;5051100;28;20024;-78
2023/01/04 09:41:13;;;;;;;26.15;20.35;;;;;;;8.68;69.41;100632.44;5049613;28;20029;-78
2023/01/04 09:43:54;;;;;;;26.00;20.02;;;;;;;8.55;68.80;100603.78;5051625;28;20414;-78
2023/01/04 09:46:40;;;;;;;22.55;18.77;;;;;;;8.76;69.39;100629.94;5052003;28;20025;-78
2023/01/04 09:49:39;;;;;;;22.08;19.17;;;;;;;8.82;69.25;100627.59;5052304;28;20565;-78
2023/01/04 09:52:20;;;;;;;22.40;19.05;;;;;;;8.48;68.95;100550.03;5051573;28;20033;-78
2023/01/04 09:54:48;;;;;;;23.67;18.38;;;;;;;8.98;68.81;100616.50;5050950;28;20114;-78
2023/01/04 09:57:36;;;;;;;26.08;19.63;;;;;;;9.05;68.80;100611.50;5052138;28;20029;-79
2023/01/04 10:00:17;;;;;;;21.75;18.88;;;;;;;9.04;68.54;100601.94;5051120;28;20035;-79
2023/01/04 10:02:55;;;;;;;26.30;21.20;;;;;;;8.86;68.41;100562.28;5052264;28;20075;-78
2023/01/04 10:05:27;;;;;;;19.33;17.25;;;;;;;9.25;68.19;100607.84;5051449;28;20025;-78
2023/01/04 10:07:53;;;;;;;24.23;19.67;;;;;;;8.68;68.06;100508.72;5052198;28;20438;-77
2023/01/04 10:10:41;;;;;;;31.25;23.55;;;;;;;9.39;67.97;100617.09;5051179;28;20043;-78
2023/01/04 10:13:49;;;;;;;25.27;19.95;;;;;;;9.45;67.97;100616.50;5049621;28;20049;-77
2023/01/04 10:16:24;;;;;;;25.42;21.27;;;;;;;9.52;67.49;100615.78;5053665;28;20119;-78
2023/01/04 10:19:00;;;;;;;24.10;20.00;;;;;;;9.56;67.30;100611.06;5052428;28;20032;-78
2023/01/04 10:21:40;;;;;;;26.88;19.75;;;;;;;9.64;67.19;100611.16;5050709;28;20029;-77
2023/01/04 10:24:41;;;;;;;23.10;18.52;;;;;;;9.73;67.11;100612.13;5046585;28;20039;-78
2023/01/04 10:27:35;;;;;;;23.38;20.33;;;;;;;9.77;67.49;100640.69;5052146;28;20097;-79
2023/01/04 10:30:15;;;;;;;24.25;18.73;;;;;;;9.70;66.62;100613.25;5034048;28;20068;-77
2023/01/04 10:32:48;;;;;;;20.70;18.33;;;;;;;9.86;66.95;100604.69;5051306;28;20037;-77
2023/01/04 10:35:24;;;;;;;28.45;19.95;;;;;;;9.87;66.77;100625.63;5049207;28;20489;-77
2023/01/04 10:37:53;;;;;;;24.55;19.33;;;;;;;9.90;67.11;100603.41;5051081;28;20081;-77
2023/01/04 10:40:19;;;;;;;25.70;21.30;;;;;;;9.79;66.47;100564.06;5050778;28;20497;-77
2023/01/04 10:42:57;;;;;;;25.95;19.90;;;;;;;9.91;66.71;100583.97;5049818;28;20055;-77
2023/01/04 10:45:47;;;;;;;21.80;19.52;;;;;;;10.00;66.48;100587.53;5048498;28;20036;-77
2023/01/04 10:48:34;;;;;;;31.17;24.45;;;;;;;10.03;66.70;100587.22;5050598;28;20119;-77
2023/01/04 10:51:02;;;;;;;28.98;23.30;;;;;;;10.06;66.39;100584.28;5044870;28;20107;-78
2023/01/04 10:53:49;;;;;;;27.02;20.30;;;;;;;9.68;66.49;100522.91;5040257;28;20506;-78
2023/01/04 10:56:22;;;;;;;28.17;21.08;;;;;;;9.66;66.58;100521.34;5040796;28;20025;-77
2023/01/04 10:58:47;;;;;;;22.45;20.08;;;;;;;10.02;66.19;100572.38;5050733;28;20060;-77
2023/01/04 11:01:31;;;;;;;23.13;19.30;;;;;;;10.02;66.47;100575.84;5051458;28;20041;-78
2023/01/04 11:04:11;;;;;;;28.38;21.23;;;;;;;8.87;66.63;100390.97;5050822;28;20029;-78
2023/01/04 11:06:46;;;;;;;28.30;22.08;;;;;;;10.02;66.66;100570.56;5050972;28;20033;-78
2023/01/04 11:09:19;;;;;;;27.08;20.83;;;;;;;9.70;66.75;100517.47;5050509;28;20083;-78
2023/01/04 11:11:47;;;;;;;25.17;19.92;;;;;;;9.72;66.76;100513.72;5049849;28;20536;-78
2023/01/04 11:14:14;;;;;;;23.42;18.98;;;;;;;9.44;66.73;100465.44;5050390;28;20033;-78
2023/01/04 11:16:43;;;;;;;24.80;19.85;;;;;;;10.07;67.23;100562.19;5050924;28;20433;-78
2023/01/04 11:19:09;;;;;;;23.42;19.35;;;;;;;9.05;67.10;100391.06;5050907;28;20064;-78
2023/01/04 11:21:42;;;;;;;24.02;18.25;;;;;;;10.11;66.82;100551.19;5050875;28;20076;-78
2023/01/04 11:24:09;;;;;;;24.52;19.65;;;;;;;10.09;67.22;100563.72;5050460;28;20021;-78
2023/01/04 11:26:42;;;;;;;25.17;19.23;;;;;;;10.00;66.68;100538.22;5050441;28;20587;-78
2023/01/04 11:29:29;;;;;;;26.55;21.52;;;;;;;10.11;67.12;100553.00;5050204;28;20020;-78
2023/01/04 11:32:18;;;;;;;23.95;19.27;;;;;;;9.26;66.93;100414.50;5050872;28;20099;-78
2023/01/04 11:34:51;;;;;;;23.95;18.65;;;;;;;10.15;67.00;100554.38;5050566;28;20029;-78
2023/01/04 11:37:29;;;;;;;25.58;20.60;;;;;;;10.16;66.56;100559.50;5050418;28;20029;-78
2023/01/04 11:40:16;;;;;;;25.85;20.85;;;;;;;10.13;66.69;100549.25;5050666;28;20029;-77
2023/01/04 11:42:43;;;;;;;27.52;22.30;;;;;;;10.16;67.38;100550.75;5050601;28;20474;-78
2023/01/04 11:45:26;;;;;;;26.88;21.25;;;;;;;10.18;66.99;100543.50;5051060;28;20048;-78
2023/01/04 11:47:56;;;;;;;23.30;20.15;;;;;;;9.45;67.15;100427.56;5054076;28;20067;-78
2023/01/04 11:50:39;;;;;;;24.92;21.85;;;;;;;10.23;66.79;100551.84;5054608;28;20028;-78
2023/01/04 11:53:20;;;;;;;26.85;21.63;;;;;;;10.24;66.94;100552.66;5054338;28;20036;-77
2023/01/04 11:55:45;;;;;;;28.90;23.92;;;;;;;9.39;66.78;100404.44;5053962;28;20033;-78
2023/01/04 11:58:15;;;;;;;28.25;23.80;;;;;;;9.84;66.76;100482.69;5053055;28;20047;-78
2023/01/04 12:00:52;;;;;;;25.33;21.08;;;;;;;10.29;66.42;100553.03;5053249;28;20063;-78
2023/01/04 12:03:26;;;;;;;31.48;22.67;;;;;;;10.01;67.04;100516.13;5053919;28;20489;-78
2023/01/04 12:05:51;;;;;;;24.88;20.77;;;;;;;10.28;66.38;100556.66;5054060;28;20025;-78
2023/01/04 12:08:37;;;;;;;24.45;21.85;;;;;;;10.00;66.70;100505.75;5054262;28;20040;-78
2023/01/04 12:11:04;;;;;;;28.40;21.73;;;;;;;10.23;66.27;100548.38;5033538;28;20061;-78
2023/01/04 12:13:31;;;;;;;31.08;25.20;;;;;;;9.41;66.54;100402.47;5040612;28;20533;-78
2023/01/04 12:16:14;;;;;;;25.95;22.45;;;;;;;10.39;66.22;100559.91;5053610;28;20031;-78